Time;durP1;ratioP1;P1;durP2;ratioP2;P2;SDS_P1;SDS_P2;PMS_P1;PMS_P2;Temp;Humidity;BMP_temperature;BMP_pressure;BME280_temperature;BME280_humidity;BME280_pressure;Samples;Min_cycle;Max_cycle;Signal;HPM_P1;HPM_P2
2021/09/23 00:01:42;;;;;;;28.92;15.45;;;;;;;9.07;91.66;99523.81;5001139;28;20041;-62
2021/09/23 00:04:34;;;;;;;25.35;15.07;;;;;;;9.07;90.75;99526.41;4986887;28;20034;-62
2021/09/23 00:07:20;;;;;;;28.90;15.32;;;;;;;8.96;92.17;99525.72;5002232;28;20045;-61
2021/09/23 00:10:09;;;;;;;27.45;14.85;;;;;;;8.74;91.46;99477.03;5002518;28;20212;-62
2021/09/23 00:12:57;;;;;;;31.45;14.95;;;;;;;9.02;92.20;99528.22;4990226;28;20069;-62
2021/09/23 00:15:43;;;;;;;26.13;15.20;;;;;;;9.02;92.10;99532.53;5001697;28;20030;-61
2021/09/23 00:18:31;;;;;;;29.48;16.13;;;;;;;9.10;91.97;99525.50;4995238;28;20193;-62
2021/09/23 00:21:19;;;;;;;23.60;13.68;;;;;;;9.17;91.88;99523.66;5001634;28;20062;-62
2021/09/23 00:24:05;;;;;;;26.17;15.20;;;;;;;9.10;91.42;99518.59;5000308;28;20026;-62
2021/09/23 00:26:51;;;;;;;27.63;16.38;;;;;;;9.07;91.54;99526.41;5003165;28;20031;-62
2021/09/23 00:29:37;;;;;;;25.67;15.07;;;;;;;9.02;91.75;99533.41;5004771;28;20089;-61
2021/09/23 00:32:23;;;;;;;29.42;17.70;;;;;;;8.89;93.42;99531.88;5005561;28;20076;-61
2021/09/23 00:35:09;;;;;;;32.55;17.38;;;;;;;8.86;92.87;99530.19;5005551;28;20026;-61
2021/09/23 00:37:55;;;;;;;26.10;16.70;;;;;;;9.00;93.24;99534.28;5004043;28;20034;-61
2021/09/23 00:40:41;;;;;;;29.60;18.23;;;;;;;8.83;93.39;99532.00;5002980;28;20100;-61
2021/09/23 00:43:27;;;;;;;24.38;15.75;;;;;;;8.92;93.66;99521.50;5005220;28;20041;-62
2021/09/23 00:46:13;;;;;;;33.83;18.90;;;;;;;8.85;93.38;99525.94;5005136;28;20035;-60
2021/09/23 00:48:59;;;;;;;27.35;17.63;;;;;;;8.69;93.85;99514.97;5003172;28;20041;-61
2021/09/23 00:51:45;;;;;;;32.47;18.60;;;;;;;8.87;94.79;99525.91;5004592;28;20026;-60
2021/09/23 00:54:31;;;;;;;31.98;18.65;;;;;;;8.88;94.00;99512.97;5003380;28;20267;-61
2021/09/23 00:57:18;;;;;;;28.33;17.13;;;;;;;8.94;93.98;99520.59;5004728;28;20022;-61
2021/09/23 01:00:07;;;;;;;40.28;19.25;;;;;;;8.86;93.90;99500.94;5004778;28;20045;-62
2021/09/23 01:02:54;;;;;;;34.58;18.55;;;;;;;8.78;95.14;99504.53;5004548;28;20057;-61
2021/09/23 01:05:40;;;;;;;39.35;19.63;;;;;;;8.89;95.05;99506.06;5002761;28;20104;-61
2021/09/23 01:08:26;;;;;;;27.88;16.52;;;;;;;9.01;94.45;99505.84;5004832;28;20061;-62
2021/09/23 01:11:12;;;;;;;31.42;18.08;;;;;;;8.95;93.98;99493.03;5002380;28;20494;-62
2021/09/23 01:13:58;;;;;;;29.25;17.33;;;;;;;9.06;93.67;99509.19;5003012;28;20030;-61
2021/09/23 01:16:43;;;;;;;28.88;17.55;;;;;;;9.09;94.03;99501.41;5000202;28;20338;-62
2021/09/23 01:19:30;;;;;;;33.20;18.48;;;;;;;9.09;93.85;99497.94;5001292;28;20037;-62
2021/09/23 01:22:16;;;;;;;36.70;18.55;;;;;;;9.12;94.26;99503.06;5001703;28;20312;-61
2021/09/23 01:25:05;;;;;;;35.53;18.40;;;;;;;9.10;94.13;99495.34;5000307;28;20447;-62
2021/09/23 01:27:51;;;;;;;37.20;18.83;;;;;;;9.08;94.32;99499.69;4985403;28;20026;-62
2021/09/23 01:30:37;;;;;;;32.80;18.30;;;;;;;9.10;95.04;99490.16;5002430;28;20045;-62
2021/09/23 01:33:23;;;;;;;33.38;17.20;;;;;;;8.83;95.64;99494.09;5001721;28;20119;-61
2021/09/23 01:36:09;;;;;;;41.22;19.63;;;;;;;8.94;96.25;99494.78;5001804;28;20322;-62
2021/09/23 01:38:54;;;;;;;43.80;18.75;;;;;;;9.00;96.00;99495.56;5002521;28;20098;-62
2021/09/23 01:41:40;;;;;;;35.13;17.27;;;;;;;8.99;95.28;99479.19;5021319;28;20263;-62
2021/09/23 01:44:26;;;;;;;38.22;17.73;;;;;;;8.94;95.67;99489.59;5003665;28;20022;-61
2021/09/23 01:47:12;;;;;;;29.40;16.17;;;;;;;8.95;96.66;99480.09;5003631;28;20042;-62
2021/09/23 01:49:59;;;;;;;28.17;16.40;;;;;;;9.02;95.90;99473.97;5001266;28;20214;-62
2021/09/23 01:52:45;;;;;;;40.72;18.35;;;;;;;8.97;95.76;99479.22;5003274;28;20096;-62
2021/09/23 01:55:31;;;;;;;50.67;17.50;;;;;;;8.97;96.23;99468.88;5002976;28;20014;-62
2021/09/23 01:58:17;;;;;;;78.78;18.20;;;;;;;8.80;97.33;99468.34;5003469;28;20342;-61
2021/09/23 02:01:03;;;;;;;51.83;18.80;;;;;;;8.91;97.13;99468.16;5003444;28;20045;-61
2021/09/23 02:03:49;;;;;;;30.90;15.20;;;;;;;9.04;95.99;99463.63;5003171;28;20019;-62
2021/09/23 02:06:34;;;;;;;37.22;16.33;;;;;;;8.97;96.35;99458.53;5002802;28;20041;-62
2021/09/23 02:09:20;;;;;;;38.83;17.20;;;;;;;9.02;96.59;99455.91;5003501;28;20022;-62
2021/09/23 02:12:06;;;;;;;40.10;17.13;;;;;;;8.97;96.82;99457.72;5003013;28;20030;-61
2021/09/23 02:14:53;;;;;;;27.00;15.27;;;;;;;9.00;96.58;99442.16;5002041;28;20054;-62
2021/09/23 02:17:39;;;;;;;47.47;16.38;;;;;;;8.98;96.61;99449.09;5001002;28;20034;-62
2021/09/23 02:20:25;;;;;;;26.27;15.43;;;;;;;8.99;97.14;99443.03;5003088;28;20030;-62
2021/09/23 02:23:10;;;;;;;35.95;14.95;;;;;;;8.95;97.52;99444.81;5001476;28;20057;-61
2021/09/23 02:25:56;;;;;;;28.65;14.80;;;;;;;9.02;96.30;99444.69;5009893;28;20056;-62
2021/09/23 02:28:42;;;;;;;25.85;14.70;;;;;;;9.04;96.42;99451.53;5015586;28;20278;-63
2021/09/23 02:31:28;;;;;;;24.88;14.60;;;;;;;9.12;96.40;99452.25;5006644;28;20324;-64
2021/09/23 02:34:14;;;;;;;23.50;12.98;;;;;;;9.02;97.23;99440.41;5002926;28;20042;-62
2021/09/23 02:37:00;;;;;;;19.55;12.10;;;;;;;9.01;96.22;99441.28;5002837;28;20022;-61
2021/09/23 02:39:46;;;;;;;18.35;11.18;;;;;;;9.12;96.68;99444.50;5000824;28;20054;-63
2021/09/23 02:42:32;;;;;;;19.67;11.25;;;;;;;9.12;95.79;99441.91;5001229;28;20552;-61
2021/09/23 02:45:18;;;;;;;18.58;11.00;;;;;;;9.15;96.46;99435.84;5001584;28;20243;-62
2021/09/23 02:48:04;;;;;;;18.27;11.10;;;;;;;9.01;96.35;99433.53;5001251;28;20042;-61
2021/09/23 02:50:50;;;;;;;21.77;11.93;;;;;;;9.06;97.17;99434.28;5002640;28;20030;-62
2021/09/23 02:53:36;;;;;;;18.73;10.98;;;;;;;9.13;96.21;99429.84;5001746;28;20109;-63
2021/09/23 02:56:22;;;;;;;16.08;10.32;;;;;;;9.19;95.82;99431.47;5015983;28;20034;-63
2021/09/23 02:59:08;;;;;;;16.23;11.20;;;;;;;9.21;95.84;99430.56;5001132;28;20462;-63
2021/09/23 03:01:54;;;;;;;17.90;10.80;;;;;;;9.31;95.96;99426.06;5001997;28;20034;-63
2021/09/23 03:04:41;;;;;;;17.30;10.98;;;;;;;9.26;95.56;99418.41;5016631;28;20044;-63
2021/09/23 03:07:27;;;;;;;23.25;12.30;;;;;;;9.26;96.23;99439.06;5000768;28;20054;-63
2021/09/23 03:10:13;;;;;;;18.77;11.02;;;;;;;9.23;96.34;99438.28;4999910;28;20034;-64
2021/09/23 03:12:59;;;;;;;18.92;11.68;;;;;;;9.22;96.44;99423.63;5001123;28;20092;-61
2021/09/23 03:15:45;;;;;;;13.88;9.00;;;;;;;9.35;96.35;99438.03;4999668;28;20038;-63
2021/09/23 03:18:31;;;;;;;19.98;9.80;;;;;;;9.31;96.74;99437.22;5001341;28;20592;-63
2021/09/23 03:21:19;;;;;;;12.45;8.57;;;;;;;9.32;96.57;99422.59;5001291;28;20038;-64
2021/09/23 03:24:05;;;;;;;12.63;8.77;;;;;;;9.37;96.62;99430.25;4985413;28;20037;-64
2021/09/23 03:26:51;;;;;;;15.48;8.90;;;;;;;9.39;96.57;99428.47;4986771;28;20105;-64
2021/09/23 03:29:37;;;;;;;11.93;8.10;;;;;;;9.29;96.09;99418.34;5013543;28;20036;-64
2021/09/23 03:32:23;;;;;;;8.93;7.18;;;;;;;9.38;96.05;99426.75;5001222;28;20222;-64
2021/09/23 03:35:09;;;;;;;10.32;7.32;;;;;;;9.28;95.83;99408.88;5015295;28;20026;-63
2021/09/23 03:37:55;;;;;;;8.50;6.55;;;;;;;9.40;96.28;99423.25;5001857;28;20339;-63
2021/09/23 03:40:45;;;;;;;8.40;6.20;;;;;;;9.38;95.37;99422.47;5012214;28;20073;-62
2021/09/23 03:43:31;;;;;;;8.68;5.68;;;;;;;9.45;95.88;99416.28;5000400;28;20130;-64
2021/09/23 03:46:18;;;;;;;8.50;5.53;;;;;;;9.50;95.75;99423.91;5000096;28;20192;-63
2021/09/23 03:49:04;;;;;;;8.50;6.45;;;;;;;9.60;95.11;99425.41;5001663;28;20077;-65
2021/09/23 03:51:50;;;;;;;6.95;5.30;;;;;;;9.55;95.85;99435.03;5001567;28;20350;-64
2021/09/23 03:54:36;;;;;;;8.15;5.78;;;;;;;9.57;96.06;99441.00;5000406;28;20049;-65
2021/09/23 03:57:22;;;;;;;7.68;5.40;;;;;;;9.63;95.57;99452.94;5001826;28;20034;-66
2021/09/23 04:00:08;;;;;;;8.60;6.10;;;;;;;9.60;95.97;99447.84;5009610;28;20030;-66
2021/09/23 04:02:54;;;;;;;4.22;3.45;;;;;;;9.53;96.07;99431.59;5011536;28;20033;-66
2021/09/23 04:05:41;;;;;;;6.47;4.13;;;;;;;9.57;96.41;99433.25;5005662;28;20379;-65
2021/09/23 04:08:27;;;;;;;4.40;3.15;;;;;;;9.52;95.74;99429.06;5005289;28;20284;-66
2021/09/23 04:11:13;;;;;;;5.03;3.35;;;;;;;9.57;95.85;99422.91;5004299;28;20042;-65
2021/09/23 04:13:58;;;;;;;4.30;3.38;;;;;;;9.56;96.57;99420.34;5004319;28;20030;-65
2021/09/23 04:16:44;;;;;;;5.55;4.50;;;;;;;9.58;96.55;99418.59;5005385;28;20080;-65
2021/09/23 04:19:30;;;;;;;5.20;3.78;;;;;;;9.54;96.12;99422.97;5004040;28;20441;-65
2021/09/23 04:22:17;;;;;;;5.38;3.95;;;;;;;9.62;96.60;99407.28;5004743;28;20219;-64
2021/09/23 04:25:03;;;;;;;5.20;4.22;;;;;;;9.55;96.02;99424.69;5003520;28;20034;-64
2021/09/23 04:27:51;;;;;;;4.68;3.63;;;;;;;9.52;96.52;99405.78;5004202;28;20041;-64
2021/09/23 04:30:37;;;;;;;4.72;3.95;;;;;;;9.66;96.26;99404.63;5016694;28;20104;-65
2021/09/23 04:33:25;;;;;;;5.57;4.30;;;;;;;9.68;96.03;99409.75;5005230;28;20046;-66
2021/09/23 04:36:11;;;;;;;5.60;4.93;;;;;;;9.65;96.50;99410.66;5004293;28;20286;-64
2021/09/23 04:38:57;;;;;;;5.38;4.13;;;;;;;9.64;95.84;99408.97;5004004;28;20061;-65
2021/09/23 04:41:43;;;;;;;6.50;4.05;;;;;;;9.64;96.39;99403.78;4999648;28;20038;-65
2021/09/23 04:44:29;;;;;;;5.93;4.45;;;;;;;9.70;96.44;99402.81;5000155;28;20030;-65
2021/09/23 04:47:15;;;;;;;6.13;4.05;;;;;;;9.74;96.74;99398.44;4999094;28;20097;-65
2021/09/23 04:50:01;;;;;;;5.25;4.10;;;;;;;9.80;95.49;99399.09;4983874;28;20137;-65
2021/09/23 04:52:46;;;;;;;5.55;4.57;;;;;;;9.84;96.06;99399.91;5001413;28;20050;-65
2021/09/23 04:55:33;;;;;;;4.50;4.03;;;;;;;9.75;95.66;99397.50;5001382;28;20034;-66
2021/09/23 04:58:18;;;;;;;5.60;4.32;;;;;;;9.83;95.97;99403.38;5001673;28;20098;-65
2021/09/23 05:01:04;;;;;;;6.45;5.07;;;;;;;9.80;95.63;99390.50;5002732;28;20037;-66
2021/09/23 05:03:51;;;;;;;7.30;4.60;;;;;;;9.88;95.61;99411.03;5003240;28;20361;-66
2021/09/23 05:06:37;;;;;;;6.22;4.35;;;;;;;9.88;95.13;99404.13;4972724;28;20034;-64
2021/09/23 05:09:22;;;;;;;6.57;4.68;;;;;;;9.88;95.59;99398.94;5003630;28;20045;-65
2021/09/23 05:12:10;;;;;;;4.72;4.03;;;;;;;9.96;95.51;99403.94;5003538;28;20022;-65
2021/09/23 05:14:56;;;;;;;6.55;4.97;;;;;;;9.96;95.82;99398.75;4987975;28;20022;-65
2021/09/23 05:17:42;;;;;;;5.72;4.65;;;;;;;9.99;95.78;99388.34;5002939;28;20652;-65
2021/09/23 05:20:27;;;;;;;5.90;5.07;;;;;;;10.05;95.95;99388.22;5003338;28;20027;-65
2021/09/23 05:23:13;;;;;;;8.88;5.60;;;;;;;10.03;96.03;99389.97;5003773;28;20045;-65
2021/09/23 05:25:59;;;;;;;5.30;4.78;;;;;;;10.11;96.07;99382.88;5003738;28;20027;-65
2021/09/23 05:28:45;;;;;;;5.65;4.63;;;;;;;10.12;95.97;99373.41;5003732;28;20038;-66
2021/09/23 05:31:31;;;;;;;6.30;5.05;;;;;;;10.15;95.42;99384.50;5003356;28;20219;-66
2021/09/23 05:34:17;;;;;;;7.00;5.10;;;;;;;10.19;95.02;99393.06;5010503;28;20378;-65
2021/09/23 05:37:03;;;;;;;7.43;5.28;;;;;;;10.19;95.38;99390.47;5001024;28;20022;-66
2021/09/23 05:39:49;;;;;;;6.60;4.70;;;;;;;10.22;95.58;99390.38;5003363;28;20110;-65
2021/09/23 05:42:36;;;;;;;5.97;4.35;;;;;;;10.23;95.01;99392.06;5003090;28;20038;-65
2021/09/23 05:45:22;;;;;;;7.72;5.55;;;;;;;10.26;95.52;99394.59;5003703;28;20054;-65
2021/09/23 05:48:08;;;;;;;6.65;5.20;;;;;;;10.26;94.69;99393.72;5003099;28;20045;-65
2021/09/23 05:50:54;;;;;;;7.03;4.95;;;;;;;10.28;95.21;99394.56;5003267;28;20238;-65
2021/09/23 05:53:40;;;;;;;8.30;5.50;;;;;;;10.31;94.99;99390.13;4995370;28;20377;-65
2021/09/23 05:56:26;;;;;;;7.80;5.70;;;;;;;10.25;95.32;99392.91;5003336;28;20030;-65
2021/09/23 05:59:12;;;;;;;6.28;5.53;;;;;;;10.24;94.93;99387.75;5003463;28;20022;-65
2021/09/23 06:01:57;;;;;;;6.80;5.00;;;;;;;10.29;95.16;99396.25;5003845;28;20057;-65
2021/09/23 06:04:44;;;;;;;7.55;5.80;;;;;;;10.29;95.33;99391.06;5014500;28;20060;-64
2021/09/23 06:07:29;;;;;;;8.25;5.47;;;;;;;10.27;94.62;99387.69;5013031;28;20214;-65
2021/09/23 06:10:16;;;;;;;6.40;4.65;;;;;;;10.34;95.57;99386.66;5005830;28;20076;-65
2021/09/23 06:13:02;;;;;;;7.60;6.05;;;;;;;10.26;95.64;99392.00;5002060;28;20251;-65
2021/09/23 06:15:50;;;;;;;9.27;6.60;;;;;;;10.29;95.32;99385.88;5002961;28;20030;-64
2021/09/23 06:18:37;;;;;;;7.65;6.30;;;;;;;10.44;95.25;99400.22;4999757;28;20038;-65
2021/09/23 06:21:23;;;;;;;6.82;5.75;;;;;;;10.48;95.04;99394.91;5002060;28;20058;-65
2021/09/23 06:24:09;;;;;;;8.43;6.50;;;;;;;10.48;95.44;99394.09;5001773;28;20089;-64
2021/09/23 06:26:55;;;;;;;9.80;6.97;;;;;;;10.44;95.54;99398.47;5000024;28;20057;-64
2021/09/23 06:29:41;;;;;;;9.00;7.80;;;;;;;10.44;95.15;99390.72;5002743;28;20030;-64
2021/09/23 06:32:26;;;;;;;10.52;7.63;;;;;;;10.48;95.29;99386.31;5001287;28;20038;-65
2021/09/23 06:35:12;;;;;;;11.02;8.65;;;;;;;10.43;96.08;99390.75;5001934;28;20041;-65
2021/09/23 06:37:58;;;;;;;10.77;7.28;;;;;;;10.48;95.42;99387.16;5000155;28;20097;-64
2021/09/23 06:40:44;;;;;;;9.55;7.88;;;;;;;10.52;95.26;99393.97;5000807;28;20054;-65
2021/09/23 06:43:30;;;;;;;9.98;8.57;;;;;;;10.45;95.89;99384.66;5001059;28;20402;-65
2021/09/23 06:46:17;;;;;;;11.40;9.23;;;;;;;10.51;95.75;99406.94;5001024;28;20286;-65
2021/09/23 06:49:03;;;;;;;11.02;8.73;;;;;;;10.61;95.62;99389.44;5000387;28;20064;-65
2021/09/23 06:51:50;;;;;;;12.68;9.63;;;;;;;10.59;95.81;99389.47;4987232;28;20026;-65
2021/09/23 06:54:36;;;;;;;11.95;9.35;;;;;;;10.63;95.22;99387.63;5000218;28;20093;-65
2021/09/23 06:57:22;;;;;;;11.38;9.48;;;;;;;10.66;95.46;99383.25;5001068;28;20128;-66
2021/09/23 07:00:08;;;;;;;14.75;10.75;;;;;;;10.60;95.49;99379.97;5004591;28;20025;-66
2021/09/23 07:02:54;;;;;;;10.32;8.82;;;;;;;10.64;95.70;99366.03;5019329;28;20041;-66
2021/09/23 07:05:43;;;;;;;13.20;9.18;;;;;;;10.63;95.39;99356.56;5020613;28;20025;-66
2021/09/23 07:08:29;;;;;;;9.95;8.23;;;;;;;10.73;95.63;99375.31;5021944;28;20061;-66
2021/09/23 07:11:14;;;;;;;10.80;8.35;;;;;;;10.68;95.19;99378.03;5020483;28;20053;-64
2021/09/23 07:14:01;;;;;;;10.95;9.07;;;;;;;10.58;96.39;99381.75;5020367;28;20022;-64
2021/09/23 07:16:46;;;;;;;7.88;6.65;;;;;;;10.31;95.94;99369.44;5020532;28;20030;-64
2021/09/23 07:19:32;;;;;;;10.90;7.35;;;;;;;10.50;96.72;99375.03;5026784;28;20068;-65
2021/09/23 07:22:18;;;;;;;8.32;6.70;;;;;;;10.48;96.79;99371.63;5020484;28;20046;-64
2021/09/23 07:25:05;;;;;;;7.97;6.18;;;;;;;10.62;96.49;99367.84;5021551;28;20207;-65
2021/09/23 07:27:52;;;;;;;7.88;6.28;;;;;;;10.63;96.02;99369.50;5020538;28;20048;-64
2021/09/23 07:30:38;;;;;;;7.55;6.75;;;;;;;10.69;96.45;99371.97;5019341;28;20018;-63
2021/09/23 07:33:24;;;;;;;8.13;6.57;;;;;;;10.65;95.82;99370.34;5021110;28;20044;-64
2021/09/23 07:36:09;;;;;;;7.38;5.75;;;;;;;10.70;96.11;99365.88;5024250;28;20136;-64
2021/09/23 07:38:55;;;;;;;8.18;6.80;;;;;;;10.76;96.03;99368.31;5025594;28;20029;-64
2021/09/23 07:41:44;;;;;;;7.03;6.20;;;;;;;10.84;95.23;99368.91;5024631;28;20053;-65
2021/09/23 07:44:30;;;;;;;7.63;6.80;;;;;;;10.84;95.56;99366.34;5024370;28;20030;-65
2021/09/23 07:47:16;;;;;;;7.63;5.88;;;;;;;10.84;95.58;99366.34;5024076;28;20536;-64
2021/09/23 07:50:02;;;;;;;7.85;6.22;;;;;;;10.95;95.34;99367.78;5020078;28;20140;-64
2021/09/23 07:52:48;;;;;;;8.18;6.47;;;;;;;10.96;95.20;99362.56;5019592;28;20068;-63
2021/09/23 07:55:34;;;;;;;8.02;6.60;;;;;;;10.99;95.13;99366.81;5024561;28;20032;-63
2021/09/23 07:58:20;;;;;;;11.52;7.07;;;;;;;10.97;95.52;99363.41;5025063;28;20052;-63
2021/09/23 08:01:06;;;;;;;10.93;6.80;;;;;;;10.93;94.99;99359.19;5025871;28;20040;-64
2021/09/23 08:03:53;;;;;;;9.27;6.68;;;;;;;10.98;95.18;99359.94;5025138;28;20117;-65
2021/09/23 08:06:40;;;;;;;7.50;6.45;;;;;;;11.03;95.01;99358.91;5025852;28;20029;-64
2021/09/23 08:09:26;;;;;;;9.10;7.18;;;;;;;11.00;95.09;99358.13;5024296;28;20036;-65
2021/09/23 08:12:12;;;;;;;6.88;6.05;;;;;;;11.00;94.86;99348.63;5024962;28;20029;-65
2021/09/23 08:14:59;;;;;;;5.93;4.95;;;;;;;11.05;94.71;99344.16;5025950;28;20022;-64
2021/09/23 08:17:45;;;;;;;6.35;5.35;;;;;;;11.10;95.34;99344.03;5024721;28;20033;-65
2021/09/23 08:20:31;;;;;;;8.45;6.20;;;;;;;11.13;95.60;99346.53;5030328;28;20337;-65
2021/09/23 08:23:18;;;;;;;6.30;5.70;;;;;;;11.11;95.28;99337.94;5022405;28;20099;-64
2021/09/23 08:26:04;;;;;;;6.15;5.28;;;;;;;11.22;94.86;99341.06;5035865;28;20025;-65
2021/09/23 08:28:51;;;;;;;6.50;5.10;;;;;;;11.11;95.00;99331.91;5024254;28;20030;-64
2021/09/23 08:31:37;;;;;;;5.65;4.93;;;;;;;11.18;94.70;99333.44;5023723;28;20030;-65
2021/09/23 08:34:23;;;;;;;6.03;5.10;;;;;;;11.26;94.10;99335.78;5022624;28;20265;-64
2021/09/23 08:37:09;;;;;;;6.55;5.85;;;;;;;11.18;95.23;99331.69;5023416;28;20056;-64
2021/09/23 08:39:54;;;;;;;8.32;5.30;;;;;;;11.16;95.11;99335.22;5023777;28;20042;-64
2021/09/23 08:42:43;;;;;;;6.65;5.13;;;;;;;11.23;93.94;99324.63;5019680;28;20048;-64
2021/09/23 08:45:29;;;;;;;8.73;5.93;;;;;;;11.13;94.80;99331.00;5019103;28;20040;-64
2021/09/23 08:48:15;;;;;;;7.10;5.20;;;;;;;11.20;94.66;99324.72;5020079;28;20026;-65
2021/09/23 08:51:02;;;;;;;6.18;5.57;;;;;;;11.16;94.84;99322.25;5021249;28;20030;-65
2021/09/23 08:53:48;;;;;;;5.88;5.28;;;;;;;11.21;95.14;99315.19;5023819;28;20124;-66
2021/09/23 08:56:34;;;;;;;6.70;5.22;;;;;;;11.33;95.18;99320.03;5019396;28;20233;-65
2021/09/23 08:59:20;;;;;;;6.38;5.78;;;;;;;11.36;94.76;99317.34;5022599;28;20159;-65
2021/09/23 09:02:26;;;;;;;5.93;4.78;;;;;;;11.38;94.74;99309.50;5023897;28;20102;-65
2021/09/23 09:05:18;;;;;;;8.13;5.78;;;;;;;11.40;94.92;99318.06;5023864;28;20104;-65
2021/09/23 09:08:13;;;;;;;6.90;5.45;;;;;;;11.40;95.27;99311.16;5024264;28;20234;-65
2021/09/23 09:11:01;;;;;;;5.80;5.10;;;;;;;10.98;94.38;99269.25;5023710;28;20125;-64
2021/09/23 09:13:50;;;;;;;5.40;4.82;;;;;;;11.30;94.94;99306.28;5024009;28;20196;-65
2021/09/23 09:16:38;;;;;;;6.55;5.50;;;;;;;11.35;94.39;99313.03;5024180;28;20026;-64
2021/09/23 09:19:24;;;;;;;5.70;5.15;;;;;;;11.23;94.50;99308.25;5023552;28;20033;-64
2021/09/23 09:22:12;;;;;;;5.90;5.18;;;;;;;11.15;95.55;99316.22;5034461;28;20083;-65
2021/09/23 09:25:02;;;;;;;6.15;5.50;;;;;;;11.21;95.87;99312.59;5025041;28;20032;-65
2021/09/23 09:27:49;;;;;;;6.13;5.53;;;;;;;11.25;95.33;99306.44;5023550;28;20033;-66
2021/09/23 09:30:36;;;;;;;8.25;6.43;;;;;;;11.12;96.21;99305.97;5023858;28;20088;-65
2021/09/23 09:33:34;;;;;;;6.93;5.90;;;;;;;11.01;95.84;99253.59;5022472;28;20037;-65
2021/09/23 09:36:32;;;;;;;8.98;5.85;;;;;;;11.27;96.32;99299.44;5022776;28;20037;-66
2021/09/23 09:39:20;;;;;;;7.65;6.07;;;;;;;11.22;95.27;99291.81;5023020;28;20132;-65
2021/09/23 09:42:13;;;;;;;9.95;6.00;;;;;;;11.04;95.43;99243.13;5022754;28;20093;-66
2021/09/23 09:45:00;;;;;;;5.60;4.65;;;;;;;11.43;95.41;99294.66;5020294;28;20029;-66
2021/09/23 09:47:52;;;;;;;7.13;5.90;;;;;;;11.44;95.36;99296.34;5018271;28;20022;-66
2021/09/23 09:50:43;;;;;;;6.13;5.35;;;;;;;11.43;95.78;99278.25;5021495;28;20029;-64
2021/09/23 09:53:29;;;;;;;5.40;4.90;;;;;;;11.50;94.96;99290.97;5013314;28;20225;-65
2021/09/23 09:56:24;;;;;;;5.97;5.40;;;;;;;11.52;95.12;99288.34;5021752;28;20250;-64
2021/09/23 09:59:19;;;;;;;8.35;5.25;;;;;;;11.52;94.70;99283.97;5022386;28;20030;-65
2021/09/23 10:02:05;;;;;;;7.10;5.30;;;;;;;11.56;94.71;99283.00;5022600;28;20049;-65
2021/09/23 10:04:53;;;;;;;8.73;6.57;;;;;;;11.57;94.52;99287.28;5018710;28;20026;-67
2021/09/23 10:07:40;;;;;;;6.20;5.45;;;;;;;11.56;94.72;99284.75;5023850;28;20029;-67
2021/09/23 10:10:28;;;;;;;4.50;4.10;;;;;;;11.14;94.08;99265.28;5026372;28;20033;-68
2021/09/23 10:13:17;;;;;;;6.38;4.60;;;;;;;11.45;94.92;99277.28;5038419;28;20099;-67
2021/09/23 10:16:03;;;;;;;6.65;4.63;;;;;;;11.53;95.29;99280.50;5036383;28;20029;-66
2021/09/23 10:18:51;;;;;;;5.00;4.50;;;;;;;11.36;95.48;99236.13;5018019;28;20024;-66
2021/09/23 10:21:38;;;;;;;6.38;4.93;;;;;;;11.63;95.28;99281.06;5019607;28;20074;-66
2021/09/23 10:24:25;;;;;;;8.02;5.53;;;;;;;11.69;94.68;99278.25;5017400;28;20038;-65
2021/09/23 10:28:13;;;;;;;6.60;5.18;;;;;;;11.72;95.15;99266.94;5030032;28;20037;-65
2021/09/23 10:30:39;;;;;;;7.28;5.13;;;;;;;11.48;95.35;99219.31;5011160;28;20065;-65
2021/09/23 10:33:26;;;;;;;5.07;4.57;;;;;;;11.78;95.25;99265.88;5006924;28;20065;-65
2021/09/23 10:36:15;;;;;;;5.80;4.63;;;;;;;11.86;94.76;99266.47;5020851;28;20026;-65
2021/09/23 10:39:05;;;;;;;3.92;3.50;;;;;;;11.57;95.17;99213.81;5020793;28;20045;-65
2021/09/23 10:41:52;;;;;;;3.97;3.33;;;;;;;11.97;94.62;99267.00;5011585;28;20035;-65
2021/09/23 10:44:39;;;;;;;4.45;3.78;;;;;;;11.97;94.07;99248.84;5020680;28;20062;-65
2021/09/23 10:47:32;;;;;;;4.30;3.90;;;;;;;11.99;93.14;99256.56;5020270;28;20026;-65
2021/09/23 10:50:24;;;;;;;4.25;3.85;;;;;;;11.87;93.17;99243.06;5020913;28;20231;-65
2021/09/23 10:53:12;;;;;;;4.28;3.88;;;;;;;11.74;93.78;99208.06;5015625;28;20435;-64
2021/09/23 10:56:03;;;;;;;5.10;4.60;;;;;;;12.08;93.90;99253.63;5013400;28;20018;-64
2021/09/23 10:58:50;;;;;;;;;;;;;;;12.06;93.85;99251.09;5021841;28;20025;-65
2021/09/23 11:01:36;;;;;;;4.22;3.75;;;;;;;12.06;93.68;99258.06;5022760;28;19947;-63
2021/09/23 11:04:22;;;;;;;6.20;5.60;;;;;;;12.01;93.62;99253.00;5027710;28;20037;-64
2021/09/23 11:07:08;;;;;;;7.35;6.65;;;;;;;12.07;93.94;99249.34;5017137;28;20025;-64
2021/09/23 11:10:04;;;;;;;6.15;5.57;;;;;;;11.85;93.82;99203.34;5030687;28;20033;-65
2021/09/23 11:12:58;;;;;;;8.45;7.00;;;;;;;12.17;93.93;99232.56;5025808;28;20032;-65
2021/09/23 11:15:46;;;;;;;8.63;6.47;;;;;;;12.24;92.68;99241.84;5022658;28;20025;-64
2021/09/23 11:18:34;;;;;;;7.43;6.65;;;;;;;12.21;92.23;99225.50;5021312;28;20056;-64
2021/09/23 11:21:20;;;;;;;9.57;7.13;;;;;;;12.35;93.38;99222.41;5022931;28;20136;-64
2021/09/23 11:24:07;;;;;;;8.00;7.20;;;;;;;12.49;92.44;99240.94;5021336;28;20330;-65
2021/09/23 11:26:54;;;;;;;9.48;7.88;;;;;;;12.52;93.03;99246.00;5028695;28;20059;-64
2021/09/23 11:29:41;;;;;;;8.10;6.85;;;;;;;12.62;91.58;99240.50;5020346;28;20026;-64
2021/09/23 11:32:27;;;;;;;8.80;7.85;;;;;;;12.59;92.72;99241.44;5033246;28;20045;-64
2021/09/23 11:35:14;;;;;;;7.78;6.88;;;;;;;12.64;93.36;99230.88;5019289;28;20033;-64
2021/09/23 11:38:00;;;;;;;8.45;7.53;;;;;;;12.57;90.83;99228.53;5021098;28;20073;-63
2021/09/23 11:40:48;;;;;;;8.30;7.50;;;;;;;12.38;91.05;99189.38;5019306;28;20092;-63
2021/09/23 11:43:38;;;;;;;11.25;8.70;;;;;;;12.36;90.00;99226.72;5021827;28;20026;-63
2021/09/23 11:46:33;;;;;;;10.75;8.25;;;;;;;12.31;90.64;99220.84;5020064;28;20227;-63
2021/09/23 11:49:20;;;;;;;10.63;8.52;;;;;;;12.39;90.03;99222.25;5020459;28;20057;-64
2021/09/23 11:52:06;;;;;;;11.50;10.00;;;;;;;12.41;89.97;99224.78;5018535;28;20061;-64
2021/09/23 11:54:52;;;;;;;12.50;9.20;;;;;;;12.19;90.16;99191.81;5019663;28;20112;-64
2021/09/23 11:57:38;;;;;;;11.10;10.00;;;;;;;12.37;91.09;99224.06;5021058;28;20089;-64
2021/09/23 12:00:30;;;;;;;12.18;10.35;;;;;;;12.32;91.00;99206.94;5032918;28;20022;-64
2021/09/23 12:03:18;;;;;;;11.52;10.32;;;;;;;12.07;90.26;99180.13;5020326;28;20276;-64
2021/09/23 12:06:16;;;;;;;12.70;10.27;;;;;;;12.30;90.55;99214.81;5019430;28;20338;-64
2021/09/23 12:09:09;;;;;;;13.05;10.55;;;;;;;12.37;90.25;99218.00;5021723;28;20622;-63
2021/09/23 12:11:56;;;;;;;14.95;10.93;;;;;;;12.36;90.89;99219.75;5019657;28;20026;-64
2021/09/23 12:14:52;;;;;;;16.55;12.75;;;;;;;12.05;91.43;99174.13;5019173;28;20029;-63
2021/09/23 12:17:55;;;;;;;17.83;13.02;;;;;;;12.36;92.00;99217.16;5021144;28;20033;-64
2021/09/23 12:20:43;;;;;;;20.10;15.85;;;;;;;11.98;89.95;99166.63;5021380;28;20034;-65
2021/09/23 12:23:36;;;;;;;18.95;15.65;;;;;;;12.05;91.65;99168.09;5023312;28;20025;-65
2021/09/23 12:26:32;;;;;;;19.70;16.02;;;;;;;12.38;91.92;99217.94;5024488;28;20036;-64
2021/09/23 12:29:23;;;;;;;19.88;16.60;;;;;;;12.40;91.68;99212.72;5019608;28;20041;-64
2021/09/23 12:32:09;;;;;;;20.40;16.35;;;;;;;12.46;92.13;99212.47;5018112;28;20262;-64
2021/09/23 12:34:55;;;;;;;23.10;15.45;;;;;;;12.51;91.93;99217.50;5023081;28;20036;-64
2021/09/23 12:37:41;;;;;;;21.92;17.25;;;;;;;12.51;90.99;99210.56;5022573;28;20084;-64
2021/09/23 12:40:31;;;;;;;18.75;14.77;;;;;;;12.33;88.03;99204.28;5021953;28;20230;-64
2021/09/23 12:43:17;;;;;;;15.85;13.00;;;;;;;12.45;87.61;99199.56;5021981;28;20039;-64
2021/09/23 12:46:13;;;;;;;16.83;13.10;;;;;;;12.54;88.08;99202.66;5022044;28;20033;-64
2021/09/23 12:49:20;;;;;;;16.10;12.95;;;;;;;12.31;88.64;99148.97;5018451;28;20034;-63
2021/09/23 12:52:20;;;;;;;15.07;11.55;;;;;;;12.54;88.26;99176.69;5020566;28;20034;-64
2021/09/23 12:55:26;;;;;;;16.08;12.68;;;;;;;12.42;89.52;99149.41;5019571;28;20042;-63
2021/09/23 12:58:20;;;;;;;17.50;13.02;;;;;;;12.36;87.97;99151.41;5021010;28;20096;-64
2021/09/23 13:01:19;;;;;;;19.60;14.45;;;;;;;12.67;90.25;99194.38;5020515;28;20030;-64
2021/09/23 13:04:22;;;;;;;19.27;13.18;;;;;;;12.59;90.42;99174.75;5021848;28;20273;-65
2021/09/23 13:07:21;;;;;;;14.95;12.38;;;;;;;12.69;89.57;99179.59;5007567;28;20022;-65